Time;durP1;ratioP1;P1;durP2;ratioP2;P2;SDS_P1;SDS_P2;PMS_P1;PMS_P2;Temp;Humidity;BMP_temperature;BMP_pressure;BME280_temperature;BME280_humidity;BME280_pressure;Samples;Min_cycle;Max_cycle;Signal;HPM_P1;HPM_P2
2022/04/21 00:00:43;;;;;;;7.33;4.97;;;;;;;6.91;54.43;98007.56;5054428;28;20201;-51
2022/04/21 00:03:12;;;;;;;7.13;5.23;;;;;;;6.81;54.34;98003.41;5054395;28;20209;-53
2022/04/21 00:05:38;;;;;;;7.90;4.80;;;;;;;6.91;53.11;97994.59;5054763;28;20194;-51
2022/04/21 00:08:05;;;;;;;8.83;5.00;;;;;;;7.02;54.10;98000.56;5054717;28;20193;-52
2022/04/21 00:10:32;;;;;;;10.10;5.17;;;;;;;6.89;54.80;98000.91;5054303;28;20539;-52
2022/04/21 00:12:59;;;;;;;7.23;5.27;;;;;;;6.81;54.24;98000.81;5052988;28;20232;-53
2022/04/21 00:15:26;;;;;;;10.37;5.50;;;;;;;6.76;55.00;97993.44;5054434;28;20751;-52
2022/04/21 00:17:53;;;;;;;7.30;5.20;;;;;;;6.75;54.82;97996.97;5054610;28;20220;-53
2022/04/21 00:20:22;;;;;;;9.93;6.27;;;;;;;6.65;55.14;97995.25;5053735;28;20197;-51
2022/04/21 00:25:51;;;;;;;7.13;5.00;;;;;;;6.47;55.89;97986.56;5054614;28;20336;-51
2022/04/21 00:28:18;;;;;;;10.50;5.00;;;;;;;6.41;57.44;97984.50;5054095;28;20197;-53
2022/04/21 00:30:45;;;;;;;7.87;4.87;;;;;;;6.31;56.96;97987.13;5054078;28;20713;-55
2022/04/21 00:33:11;;;;;;;8.30;4.90;;;;;;;6.22;56.07;97981.03;5054001;28;21043;-54
2022/04/21 00:35:39;;;;;;;8.50;5.30;;;;;;;6.34;56.57;97979.09;5054239;28;20208;-53
2022/04/21 00:38:06;;;;;;;8.33;5.30;;;;;;;6.30;58.04;97969.94;5053947;28;20238;-54
2022/04/21 00:40:33;;;;;;;6.70;5.07;;;;;;;6.19;56.92;97973.53;5054969;28;20200;-54
2022/04/21 00:43:02;;;;;;;8.00;4.43;;;;;;;6.09;57.74;97977.91;5058768;28;20198;-54
2022/04/21 00:45:29;;;;;;;7.37;4.77;;;;;;;6.00;57.37;97974.31;5056799;28;20284;-51
2022/04/21 00:47:58;;;;;;;8.07;4.87;;;;;;;6.00;58.20;97969.13;5061776;28;20688;-51
2022/04/21 00:50:27;;;;;;;8.00;5.40;;;;;;;6.03;56.67;97969.72;5062796;28;20271;-52
2022/04/21 00:52:56;;;;;;;6.80;5.10;;;;;;;5.99;57.05;97960.56;5061745;28;20206;-52
2022/04/21 00:55:24;;;;;;;6.87;4.80;;;;;;;6.06;57.56;97966.03;5057346;28;20194;-51
2022/04/21 00:57:53;;;;;;;6.97;4.70;;;;;;;5.93;57.28;97968.88;5057905;28;20274;-51
2022/04/21 01:00:20;;;;;;;7.37;5.03;;;;;;;5.86;58.88;97966.00;5057918;28;20190;-53
2022/04/21 01:02:46;;;;;;;6.87;4.57;;;;;;;5.83;58.54;97965.47;5060563;28;20647;-51
2022/04/21 01:05:14;;;;;;;9.13;4.90;;;;;;;5.80;58.00;97963.16;5059813;28;20197;-51
2022/04/21 01:07:41;;;;;;;5.93;4.50;;;;;;;5.76;58.00;97960.03;5061699;28;20206;-54
2022/04/21 01:10:10;;;;;;;9.50;5.17;;;;;;;5.82;59.10;97966.44;5059789;28;20225;-53
2022/04/21 01:12:38;;;;;;;9.87;5.23;;;;;;;5.82;59.38;97963.84;5061891;28;20197;-51
2022/04/21 01:15:05;;;;;;;8.63;5.22;;;;;;;5.94;58.54;97961.91;5052168;28;20442;-54
2022/04/21 01:17:35;;;;;;;7.70;4.80;;;;;;;5.99;58.81;97955.38;5057341;28;20197;-54
2022/04/21 01:20:02;;;;;;;6.80;4.77;;;;;;;6.10;59.24;97949.25;5058271;28;20203;-52
2022/04/21 01:22:30;;;;;;;5.57;4.13;;;;;;;6.17;58.33;97947.75;5058415;28;20540;-52
2022/04/21 01:24:57;;;;;;;6.23;4.37;;;;;;;6.24;57.56;97952.38;5060516;28;20220;-51
2022/04/21 01:27:28;;;;;;;9.73;5.40;;;;;;;6.28;56.84;97951.13;5056617;28;20194;-52
2022/04/21 01:29:55;;;;;;;8.37;5.10;;;;;;;6.39;56.68;97942.34;5051543;28;20222;-51
2022/04/21 01:32:21;;;;;;;11.17;5.50;;;;;;;6.47;55.83;97950.25;5052547;28;20672;-52
2022/04/21 01:34:48;;;;;;;10.17;4.63;;;;;;;6.62;54.83;97946.25;5053162;28;20249;-52
2022/04/21 01:42:45;;;;;;;8.33;5.10;;;;;;;7.22;53.34;97938.97;5053086;28;20320;-52
2022/04/21 01:45:12;;;;;;;9.47;4.83;;;;;;;7.22;53.51;97936.38;5053192;28;20183;-53
2022/04/21 01:47:38;;;;;;;7.33;4.63;;;;;;;7.10;54.63;97938.38;5053113;28;20650;-51
2022/04/21 01:50:07;;;;;;;7.93;5.17;;;;;;;6.96;53.89;97939.66;5052741;28;20500;-53
2022/04/21 01:52:37;;;;;;;5.80;4.50;;;;;;;6.89;54.79;97941.25;5052919;28;20690;-51
2022/04/21 01:55:06;;;;;;;10.23;4.50;;;;;;;6.83;55.48;97934.84;5052842;28;20568;-53
2022/04/21 01:57:34;;;;;;;7.17;4.77;;;;;;;6.84;55.01;97935.66;5052997;28;20616;-51
2022/04/21 02:00:01;;;;;;;7.43;4.90;;;;;;;6.79;54.99;97928.28;5051323;28;20535;-51
2022/04/21 02:02:32;;;;;;;7.57;4.93;;;;;;;6.89;55.09;97933.47;5052836;28;20600;-52
2022/04/21 02:05:00;;;;;;;7.03;4.80;;;;;;;6.87;55.46;97922.41;5052843;28;20286;-51
2022/04/21 02:07:27;;;;;;;8.90;5.10;;;;;;;6.81;54.98;97920.38;5052447;28;20217;-51
2022/04/21 02:09:54;;;;;;;7.47;4.37;;;;;;;6.74;56.22;97923.56;5048516;28;20206;-55
2022/04/21 02:12:23;;;;;;;5.57;4.53;;;;;;;6.59;56.62;97914.59;5051504;28;20198;-54
2022/04/21 02:14:51;;;;;;;6.87;4.57;;;;;;;6.49;57.20;97914.63;5052648;28;20225;-52
2022/04/21 02:17:19;;;;;;;8.33;4.30;;;;;;;6.34;58.13;97909.94;5052814;28;20202;-55
2022/04/21 02:19:45;;;;;;;7.23;4.67;;;;;;;6.20;59.77;97912.97;5052369;28;20213;-53
2022/04/21 02:22:13;;;;;;;6.67;4.33;;;;;;;6.04;61.68;97914.38;5052759;28;20179;-54
2022/04/21 02:24:40;;;;;;;7.97;4.70;;;;;;;5.89;61.89;97919.13;5052593;28;20288;-53
2022/04/21 02:27:07;;;;;;;6.07;4.17;;;;;;;5.73;61.11;97919.69;5052584;28;20265;-54
2022/04/21 02:29:35;;;;;;;6.77;4.67;;;;;;;5.61;61.26;97923.38;5052353;28;20196;-51
2022/04/21 02:32:02;;;;;;;6.97;4.60;;;;;;;5.50;61.24;97923.50;5052526;28;20715;-52
2022/04/21 02:34:29;;;;;;;8.77;4.73;;;;;;;5.42;61.58;97922.41;5052191;28;20232;-54
2022/04/21 02:36:56;;;;;;;8.13;4.67;;;;;;;5.30;61.50;97926.91;5052444;28;20685;-54
2022/04/21 02:39:24;;;;;;;6.07;4.07;;;;;;;5.22;61.75;97926.75;5052216;28;20186;-54
2022/04/21 02:41:50;;;;;;;6.80;4.37;;;;;;;5.21;61.90;97924.31;5052191;28;20175;-53
2022/04/21 02:44:17;;;;;;;7.63;4.60;;;;;;;5.14;62.28;97924.84;5052367;28;20216;-52
2022/04/21 02:46:46;;;;;;;7.27;4.50;;;;;;;5.10;62.08;97928.66;5052375;28;20220;-55
2022/04/21 02:49:13;;;;;;;9.73;6.10;;;;;;;5.06;63.66;97921.28;5052038;28;20199;-55
2022/04/21 02:51:40;;;;;;;6.87;4.70;;;;;;;5.08;63.67;97920.19;5052178;28;20263;-52
2022/04/21 02:59:36;;;;;;;12.63;4.60;;;;;;;4.94;65.92;97915.41;5052000;28;20583;-55
2022/04/21 03:02:04;;;;;;;6.97;4.83;;;;;;;4.95;67.76;97911.88;5052191;28;20187;-52
2022/04/21 03:04:31;;;;;;;6.80;5.20;;;;;;;4.85;66.42;97915.25;5052037;28;20203;-52
2022/04/21 03:06:58;;;;;;;8.33;5.23;;;;;;;4.87;65.99;97913.34;5052116;28;20584;-54
2022/04/21 03:09:25;;;;;;;10.30;4.60;;;;;;;4.77;66.12;97904.72;5051786;28;20191;-53
2022/04/21 03:11:51;;;;;;;7.00;4.83;;;;;;;4.75;65.96;97911.81;5051998;28;20202;-52
2022/04/21 03:14:19;;;;;;;8.43;4.70;;;;;;;4.72;66.10;97910.31;5051971;28;20680;-54
2022/04/21 03:16:46;;;;;;;8.00;4.90;;;;;;;4.72;66.62;97912.06;5051888;28;20604;-51
2022/04/21 03:19:14;;;;;;;7.57;4.60;;;;;;;4.76;67.34;97913.44;5051690;28;20229;-54
2022/04/21 03:24:25;;;;;;;8.90;5.27;;;;;;;4.72;66.21;97912.06;5051894;28;20920;-52
2022/04/21 03:26:54;;;;;;;7.43;4.63;;;;;;;4.65;65.93;97903.19;5047350;28;20236;-52
2022/04/21 03:29:21;;;;;;;7.27;4.60;;;;;;;4.65;65.91;97900.63;5042071;28;20190;-52
2022/04/21 03:31:48;;;;;;;9.00;4.90;;;;;;;4.59;66.79;97901.97;5051520;28;20229;-52
2022/04/21 03:34:18;;;;;;;9.27;5.37;;;;;;;4.57;66.72;97899.50;5051523;28;20224;-52
2022/04/21 03:36:47;;;;;;;5.93;4.03;;;;;;;4.56;67.64;97905.63;5051709;28;20186;-51
2022/04/21 03:39:14;;;;;;;7.87;4.90;;;;;;;4.56;67.21;97907.41;5051578;28;20191;-54
2022/04/21 03:41:41;;;;;;;8.97;5.00;;;;;;;4.55;68.39;97901.41;5051683;28;20235;-52
2022/04/21 03:44:09;;;;;;;6.40;5.13;;;;;;;4.52;68.88;97899.06;5051580;28;20214;-52
2022/04/21 03:46:36;;;;;;;7.60;5.30;;;;;;;4.41;68.57;97899.16;5051708;28;20196;-51
2022/04/21 03:49:03;;;;;;;8.43;4.47;;;;;;;4.34;68.13;97905.78;5051381;28;20179;-52
2022/04/21 03:51:31;;;;;;;8.87;4.97;;;;;;;4.31;68.88;97899.13;5051545;28;20949;-51
2022/04/21 03:53:59;;;;;;;11.37;5.20;;;;;;;4.28;68.81;97905.34;5051839;28;20207;-52
2022/04/21 03:56:26;;;;;;;7.20;4.87;;;;;;;4.29;67.83;97898.44;5055359;28;20198;-52
2022/04/21 03:58:53;;;;;;;9.07;5.40;;;;;;;4.21;67.88;97900.84;5054970;28;20191;-52
2022/04/21 04:01:20;;;;;;;7.67;5.40;;;;;;;4.17;69.29;97896.88;5055177;28;20182;-51
2022/04/21 04:03:47;;;;;;;7.97;5.23;;;;;;;4.13;69.10;97894.53;5055067;28;20213;-52
2022/04/21 04:11:40;;;;;;;10.20;5.23;;;;;;;4.04;69.59;97894.50;5054947;28;20219;-53
2022/04/21 04:14:07;;;;;;;7.27;4.87;;;;;;;4.07;70.02;97894.25;5054836;28;20605;-53
2022/04/21 04:16:35;;;;;;;6.90;4.80;;;;;;;4.05;69.51;97899.53;5054922;28;20533;-54
2022/04/21 04:19:05;;;;;;;8.90;4.40;;;;;;;3.95;69.00;97902.06;5054580;28;20662;-54
2022/04/21 04:21:32;;;;;;;7.77;4.90;;;;;;;4.07;71.69;97902.81;5054826;28;20192;-53
2022/04/21 04:24:00;;;;;;;8.57;5.07;;;;;;;4.12;72.63;97902.44;5054810;28;20205;-51
2022/04/21 04:26:27;;;;;;;8.40;5.27;;;;;;;4.07;69.76;97896.84;5054695;28;20209;-53
2022/04/21 04:29:12;;;;;;;10.20;5.47;;;;;;;4.07;69.02;97892.47;5054757;28;20198;-51
2022/04/21 04:31:40;;;;;;;7.23;5.23;;;;;;;4.07;69.36;97891.66;5054526;28;20208;-52
2022/04/21 04:34:08;;;;;;;8.73;4.93;;;;;;;4.20;70.09;97900.03;5054394;28;20259;-53
2022/04/21 04:36:35;;;;;;;7.40;5.03;;;;;;;4.17;69.65;97892.53;5054566;28;20187;-51
2022/04/21 04:39:03;;;;;;;7.33;4.93;;;;;;;4.21;69.98;97893.94;5054091;28;20243;-51
2022/04/21 04:44:14;;;;;;;8.40;5.47;;;;;;;4.37;71.75;97896.03;5054323;28;20307;-52
2022/04/21 04:46:42;;;;;;;8.40;5.27;;;;;;;4.28;71.31;97887.25;5054407;28;20186;-51
2022/04/21 04:49:10;;;;;;;9.83;5.43;;;;;;;4.32;70.17;97889.59;5054067;28;20228;-51
2022/04/21 04:51:40;;;;;;;7.57;5.43;;;;;;;4.26;70.54;97891.75;5054163;28;20680;-53
2022/04/21 04:54:10;;;;;;;9.50;6.13;;;;;;;4.26;70.28;97899.50;5054062;28;20216;-50
2022/04/21 04:56:38;;;;;;;9.03;6.20;;;;;;;4.25;71.21;97900.44;5054230;28;20185;-51
2022/04/21 04:59:05;;;;;;;10.40;6.07;;;;;;;4.27;71.41;97908.09;5053776;28;20248;-51
2022/04/21 05:01:33;;;;;;;10.70;6.17;;;;;;;4.28;72.08;97907.13;5054075;28;20228;-51
2022/04/21 05:04:04;;;;;;;7.60;5.40;;;;;;;4.29;71.39;97908.78;5053974;28;20551;-50
2022/04/21 05:06:35;;;;;;;7.90;5.47;;;;;;;4.28;71.42;97912.31;5053918;28;20191;-54
2022/04/21 05:09:02;;;;;;;6.77;5.17;;;;;;;4.36;71.37;97909.06;5053623;28;20185;-53
2022/04/21 05:11:30;;;;;;;6.80;5.13;;;;;;;4.37;71.55;97908.94;5053841;28;20293;-52
2022/04/21 05:13:59;;;;;;;9.80;4.97;;;;;;;4.40;72.58;97906.09;5053910;28;20757;-51
2022/04/21 05:16:45;;;;;;;12.80;5.73;;;;;;;4.40;71.57;97906.09;5053977;28;20556;-51
2022/04/21 05:19:13;;;;;;;8.27;5.47;;;;;;;4.46;71.28;97903.94;5053444;28;20196;-51
2022/04/21 05:21:41;;;;;;;28.60;13.37;;;;;;;4.57;71.71;97902.09;5053750;28;20202;-51
2022/04/21 05:24:10;;;;;;;9.60;5.33;;;;;;;4.56;71.59;97900.44;5053671;28;20571;-52
2022/04/21 05:26:39;;;;;;;6.90;4.83;;;;;;;4.61;70.54;97896.66;5052041;28;20187;-51
2022/04/21 05:30:55;;;;;;;10.53;5.20;;;;;;;4.64;69.91;97896.38;5051626;28;20615;-54
2022/04/21 05:31:55;;;;;;;9.80;5.57;;;;;;;4.73;70.19;97887.84;5053148;28;20297;-54
2022/04/21 05:34:40;;;;;;;7.43;4.97;;;;;;;4.77;71.53;97893.59;5046715;28;20223;-52
2022/04/21 05:37:08;;;;;;;9.17;5.50;;;;;;;4.85;71.37;97898.91;5053399;28;20207;-52
2022/04/21 05:39:36;;;;;;;11.07;5.67;;;;;;;4.91;71.39;97894.97;5052954;28;20181;-51
2022/04/21 05:42:10;;;;;;;10.87;5.90;;;;;;;4.91;71.71;97900.16;5053368;28;20186;-53
2022/04/21 05:44:38;;;;;;;12.63;6.20;;;;;;;4.98;70.65;97885.72;5053237;28;20210;-52
2022/04/21 05:47:05;;;;;;;7.40;5.50;;;;;;;5.02;70.64;97884.50;5053089;28;20239;-51
2022/04/21 05:49:33;;;;;;;6.47;4.73;;;;;;;5.10;70.95;97886.44;5052880;28;20230;-52
2022/04/21 05:52:02;;;;;;;10.47;5.50;;;;;;;5.12;72.90;97882.75;5053125;28;20258;-54
2022/04/21 05:54:29;;;;;;;9.90;5.13;;;;;;;5.21;72.79;97883.72;5053009;28;20522;-52
2022/04/21 05:56:57;;;;;;;8.03;5.77;;;;;;;5.24;72.35;97891.22;5052968;28;20237;-52
2022/04/21 05:59:25;;;;;;;11.70;7.23;;;;;;;5.29;71.39;97891.63;5052760;28;20183;-53
2022/04/21 06:01:52;;;;;;;9.73;6.65;;;;;;;5.35;71.22;97898.00;5052408;28;20427;-52
2022/04/21 06:04:22;;;;;;;8.83;6.37;;;;;;;5.40;71.18;97889.84;5052879;28;20212;-54
2022/04/21 06:06:50;;;;;;;12.07;7.40;;;;;;;5.46;70.55;97890.13;5052669;28;20529;-50
2022/04/21 06:09:17;;;;;;;11.27;6.40;;;;;;;5.54;71.35;97889.44;5052446;28;20184;-51
2022/04/21 06:11:43;;;;;;;10.17;6.03;;;;;;;5.61;70.99;97882.78;5052622;28;20207;-54
2022/04/21 06:14:10;;;;;;;9.23;5.23;;;;;;;5.69;70.16;97876.91;5052642;28;20219;-51
2022/04/21 06:16:38;;;;;;;12.20;5.90;;;;;;;5.75;70.26;97876.34;5052349;28;20677;-51
2022/04/21 06:19:05;;;;;;;9.90;6.17;;;;;;;5.79;70.60;97878.66;5052379;28;20189;-51
2022/04/21 06:21:32;;;;;;;8.47;5.77;;;;;;;5.80;69.21;97877.69;5052438;28;20657;-51
2022/04/21 06:23:59;;;;;;;9.03;5.03;;;;;;;5.87;68.89;97876.19;5052430;28;20268;-54
2022/04/21 06:26:27;;;;;;;8.07;5.50;;;;;;;5.92;67.75;97879.19;5052626;28;20190;-51
2022/04/21 06:28:55;;;;;;;8.57;5.67;;;;;;;5.99;68.62;97876.84;5052292;28;20203;-53
2022/04/21 06:31:22;;;;;;;10.83;6.63;;;;;;;6.09;68.71;97884.63;5052374;28;20208;-51
2022/04/21 06:33:50;;;;;;;11.57;6.03;;;;;;;6.20;68.50;97881.88;5052173;28;20209;-53
2022/04/21 06:36:17;;;;;;;7.63;5.83;;;;;;;6.36;68.78;97886.44;5052492;28;20193;-51
2022/04/21 06:38:44;;;;;;;9.97;6.10;;;;;;;6.61;66.24;97884.97;5052146;28;20190;-54
2022/04/21 06:41:12;;;;;;;13.07;6.50;;;;;;;6.76;65.19;97885.31;5052295;28;20243;-51
2022/04/21 06:49:27;;;;;;;11.03;6.07;;;;;;;7.20;64.97;97889.84;5052321;28;20605;-51
2022/04/21 06:51:54;;;;;;;10.23;6.70;;;;;;;7.38;64.63;97887.22;5051448;28;20205;-51
2022/04/21 06:54:21;;;;;;;12.33;7.70;;;;;;;7.48;64.55;97888.94;5047584;28;20694;-51
2022/04/21 06:56:48;;;;;;;7.60;5.53;;;;;;;7.52;64.72;97893.66;5048412;28;20202;-51
2022/04/21 06:59:33;;;;;;;7.40;5.47;;;;;;;7.52;65.92;97888.47;5056783;28;20201;-51
2022/04/21 07:02:00;;;;;;;18.43;10.33;;;;;;;7.51;64.35;97889.44;5049045;28;20208;-51
2022/04/21 07:04:28;;;;;;;12.70;6.93;;;;;;;7.71;66.12;97889.28;5051447;28;20695;-51
2022/04/21 07:06:55;;;;;;;11.37;7.07;;;;;;;7.77;65.20;97888.66;5051574;28;20576;-53
2022/04/21 07:09:22;;;;;;;16.23;8.80;;;;;;;7.81;64.26;97890.00;5051361;28;20189;-53
2022/04/21 07:11:48;;;;;;;22.77;12.60;;;;;;;7.98;63.75;97892.72;5051607;28;20566;-55
2022/04/21 07:14:15;;;;;;;8.33;6.13;;;;;;;7.95;66.92;97895.63;5051578;28;20206;-54
2022/04/21 07:16:43;;;;;;;10.20;6.53;;;;;;;8.11;66.02;97893.13;5051593;28;20207;-53
2022/04/21 07:19:10;;;;;;;9.53;6.50;;;;;;;8.35;64.58;97893.41;5051458;28;20198;-52
2022/04/21 07:21:38;;;;;;;11.00;6.37;;;;;;;8.58;64.59;97896.31;5051518;28;20190;-51
2022/04/21 07:24:05;;;;;;;8.63;6.10;;;;;;;8.62;63.02;97891.63;5051374;28;20698;-51
2022/04/21 07:26:32;;;;;;;8.90;6.87;;;;;;;8.90;61.28;97892.22;5051543;28;20308;-51
2022/04/21 07:28:58;;;;;;;11.23;7.00;;;;;;;9.09;60.34;97888.50;5047542;28;20552;-52
2022/04/21 07:31:25;;;;;;;10.93;7.27;;;;;;;9.19;58.99;97890.16;5054952;28;20191;-51
2022/04/21 07:33:52;;;;;;;11.53;7.00;;;;;;;9.26;59.67;97884.16;5054896;28;20216;-51
2022/04/21 07:36:19;;;;;;;13.90;6.20;;;;;;;9.24;61.00;97896.53;5055044;28;20188;-51
2022/04/21 07:38:49;;;;;;;8.27;6.37;;;;;;;9.38;60.69;97895.06;5054990;28;20191;-54
2022/04/21 07:41:15;;;;;;;10.53;6.90;;;;;;;9.41;60.72;97892.13;5055354;28;20183;-51
2022/04/21 07:43:44;;;;;;;11.23;7.70;;;;;;;9.46;60.22;97891.66;5055129;28;20209;-52
2022/04/21 07:46:11;;;;;;;8.97;7.13;;;;;;;9.60;60.23;97893.59;5055114;28;20189;-51
2022/04/21 07:51:22;;;;;;;10.27;8.00;;;;;;;9.79;60.10;97890.84;5054964;28;20196;-52
2022/04/21 07:53:49;;;;;;;13.50;8.10;;;;;;;9.92;61.66;97885.97;5055318;28;20358;-51
2022/04/21 07:56:16;;;;;;;15.60;8.93;;;;;;;10.11;59.93;97892.59;5054457;28;20200;-53
2022/04/21 07:58:42;;;;;;;9.90;7.23;;;;;;;10.25;59.55;97888.47;5054617;28;20189;-54
2022/04/21 08:01:09;;;;;;;11.50;7.93;;;;;;;10.39;60.35;97886.16;5054870;28;20696;-54
2022/04/21 08:03:37;;;;;;;10.67;7.70;;;;;;;10.42;59.09;97881.47;5054554;28;20208;-54
2022/04/21 08:06:04;;;;;;;11.27;8.47;;;;;;;10.58;58.35;97882.41;5054648;28;20595;-53
2022/04/21 08:08:31;;;;;;;13.37;8.33;;;;;;;10.74;58.54;97884.91;5054359;28;20185;-54
2022/04/21 08:10:59;;;;;;;13.90;8.83;;;;;;;10.81;57.31;97885.06;5054599;28;20672;-51
2022/04/21 08:13:28;;;;;;;12.70;7.87;;;;;;;10.87;57.09;97881.78;5054417;28;20290;-51
2022/04/21 08:15:54;;;;;;;13.17;8.00;;;;;;;10.86;57.90;97882.75;5054310;28;20190;-53
2022/04/21 08:18:21;;;;;;;12.80;8.17;;;;;;;11.03;57.45;97874.84;5054170;28;20195;-53
2022/04/21 08:20:48;;;;;;;11.83;8.73;;;;;;;11.18;57.72;97882.75;5054338;28;20188;-53
2022/04/21 08:23:15;;;;;;;12.33;7.87;;;;;;;11.39;58.95;97881.31;5054287;28;20209;-52
2022/04/21 08:33:56;;;;;;;9.63;6.90;;;;;;;11.95;55.13;97883.63;5053935;28;20238;-52
2022/04/21 08:36:23;;;;;;;10.40;7.13;;;;;;;12.07;53.66;97884.00;5054072;28;20199;-54
2022/04/21 08:38:50;;;;;;;12.13;8.00;;;;;;;12.16;55.00;97884.75;5053296;28;20184;-53
2022/04/21 08:41:20;;;;;;;10.00;6.97;;;;;;;12.45;54.44;97881.34;5053885;28;20600;-51
2022/04/21 08:43:49;;;;;;;12.47;6.33;;;;;;;12.50;48.79;97880.78;5053864;28;20214;-52
2022/04/21 08:46:19;;;;;;;15.03;6.60;;;;;;;12.67;47.51;97878.78;5053993;28;20185;-51
2022/04/21 08:48:50;;;;;;;10.40;7.00;;;;;;;12.68;47.64;97883.03;5053615;28;20191;-52
2022/04/21 08:51:17;;;;;;;8.03;6.80;;;;;;;12.64;47.78;97881.78;5054215;28;20191;-53
2022/04/21 08:53:44;;;;;;;9.07;6.70;;;;;;;12.50;47.35;97878.97;5053587;28;20222;-52
2022/04/21 08:56:11;;;;;;;13.00;6.80;;;;;;;12.60;47.59;97877.91;5053746;28;20184;-51
2022/04/21 08:58:38;;;;;;;10.13;6.27;;;;;;;12.74;47.42;97887.50;5053396;28;20180;-51
2022/04/21 09:01:06;;;;;;;9.27;6.90;;;;;;;12.88;47.30;97885.88;5053724;28;20204;-50
2022/04/21 09:03:35;;;;;;;10.93;7.07;;;;;;;12.79;45.80;97881.75;5053446;28;20239;-52
2022/04/21 09:06:01;;;;;;;9.43;6.73;;;;;;;12.80;46.38;97876.31;5053368;28;20184;-50
2022/04/21 09:08:28;;;;;;;7.43;6.03;;;;;;;12.78;46.04;97882.75;5053469;28;20196;-51
2022/04/21 09:11:06;;;;;;;8.83;6.63;;;;;;;12.69;46.68;97879.41;5053474;28;20185;-51
2022/04/21 09:13:35;;;;;;;12.50;7.63;;;;;;;12.64;49.21;97876.53;5053248;28;20569;-51
2022/04/21 09:16:02;;;;;;;11.13;8.63;;;;;;;12.76;49.38;97877.66;5053384;28;20189;-50
2022/04/21 09:18:41;;;;;;;10.03;7.70;;;;;;;12.87;49.42;97872.94;5052940;28;20187;-50
2022/04/21 09:21:10;;;;;;;11.67;8.07;;;;;;;12.88;48.07;97871.97;5053424;28;20275;-52
2022/04/21 09:23:36;;;;;;;11.30;8.47;;;;;;;12.97;47.38;97863.00;5053125;28;20209;-50
2022/04/21 09:26:08;;;;;;;18.07;8.40;;;;;;;13.29;48.62;97863.53;5053231;28;20192;-53
2022/04/21 09:28:35;;;;;;;12.23;8.03;;;;;;;13.38;46.77;97861.59;5050037;28;20189;-51
2022/04/21 09:31:02;;;;;;;10.00;7.63;;;;;;;13.56;46.46;97858.56;5052738;28;20196;-51
2022/04/21 09:33:30;;;;;;;10.20;7.50;;;;;;;13.62;46.80;97859.59;5052136;28;20290;-51
2022/04/21 09:35:59;;;;;;;11.00;8.60;;;;;;;13.81;46.31;97863.38;5052834;28;20579;-51
2022/04/21 09:38:26;;;;;;;13.10;8.40;;;;;;;13.94;48.17;97858.22;5052686;28;20189;-54
2022/04/21 09:40:53;;;;;;;10.90;9.10;;;;;;;13.74;46.24;97855.47;5052866;28;20189;-52
2022/04/21 09:43:28;;;;;;;12.47;8.87;;;;;;;13.93;45.22;97853.19;5052583;28;20542;-51
2022/04/21 09:46:08;;;;;;;16.60;8.37;;;;;;;14.02;45.40;97846.78;5052881;28;20275;-51
2022/04/21 09:48:37;;;;;;;10.07;8.27;;;;;;;14.08;44.77;97835.53;5052430;28;20214;-53
2022/04/21 09:51:11;;;;;;;11.33;8.03;;;;;;;14.05;42.48;97829.84;5052692;28;20193;-50
2022/04/21 09:53:53;;;;;;;8.50;7.13;;;;;;;14.10;42.61;97841.38;5051928;28;20214;-51
2022/04/21 09:56:30;;;;;;;8.80;6.33;;;;;;;14.32;41.55;97828.16;5052627;28;20247;-51
2022/04/21 09:58:57;;;;;;;9.53;7.50;;;;;;;14.42;42.66;97835.69;5052301;28;20272;-51
2022/04/21 10:01:24;;;;;;;12.53;7.90;;;;;;;14.50;42.98;97824.19;5057510;28;20196;-52
2022/04/21 10:03:51;;;;;;;9.67;7.33;;;;;;;14.45;42.96;97822.16;5059625;28;20599;-53
2022/04/21 10:06:21;;;;;;;9.00;6.93;;;;;;;14.49;40.03;97814.69;5062240;28;20260;-53
2022/04/21 10:08:49;;;;;;;9.17;6.20;;;;;;;14.56;41.31;97811.09;5062553;28;20251;-52
2022/04/21 10:11:18;;;;;;;9.07;6.97;;;;;;;14.69;42.20;97814.78;5061627;28;20247;-51
2022/04/21 10:13:46;;;;;;;13.73;7.90;;;;;;;14.90;44.18;97811.22;5062011;28;20217;-51
2022/04/21 10:16:16;;;;;;;18.33;13.83;;;;;;;14.96;43.24;97801.72;5066765;23;20270;-52
2022/04/21 10:18:43;;;;;;;12.63;8.67;;;;;;;15.04;43.60;97807.63;5040718;28;20191;-50
2022/04/21 10:21:10;;;;;;;12.37;8.43;;;;;;;14.98;42.31;97797.09;5039341;28;20265;-50
2022/04/21 10:23:42;;;;;;;14.67;9.03;;;;;;;14.74;42.47;97796.66;5040363;28;20214;-51
2022/04/21 10:26:09;;;;;;;11.20;7.30;;;;;;;14.91;41.21;97783.94;5032468;28;20290;-50
2022/04/21 10:28:37;;;;;;;9.97;7.33;;;;;;;14.91;42.83;97778.69;5027654;28;20193;-52
2022/04/21 10:31:27;;;;;;;13.47;7.73;;;;;;;15.10;40.92;97768.41;5028390;28;20196;-50
2022/04/21 10:33:55;;;;;;;9.20;5.77;;;;;;;15.28;42.61;97762.53;5026933;28;20208;-50
2022/04/21 10:36:49;;;;;;;7.60;5.10;;;;;;;15.16;38.57;97763.13;5032036;28;20215;-50
2022/04/21 10:39:27;;;;;;;8.63;5.80;;;;;;;15.19;38.64;97769.84;4985200;28;20210;-51
2022/04/21 10:42:14;;;;;;;7.30;5.23;;;;;;;15.20;38.89;97753.84;5031929;28;20190;-50
2022/04/21 10:44:46;;;;;;;6.10;5.43;;;;;;;15.35;38.83;97768.59;5031943;28;20229;-51
2022/04/21 10:47:30;;;;;;;8.23;5.77;;;;;;;15.01;37.96;97759.88;5031962;28;20574;-50
2022/04/21 10:49:58;;;;;;;7.73;5.90;;;;;;;15.18;38.68;97750.59;5031572;28;20190;-50
2022/04/21 10:58:51;;;;;;;8.73;5.60;;;;;;;15.49;38.15;97735.22;5043890;28;20664;-50
2022/04/21 11:01:28;;;;;;;7.47;5.40;;;;;;;15.71;38.98;97743.69;5031661;28;20201;-50
2022/04/21 11:04:22;;;;;;;7.63;5.67;;;;;;;15.74;38.41;97740.66;5053615;28;20195;-50
2022/04/21 11:06:51;;;;;;;10.33;6.03;;;;;;;15.68;38.75;97728.31;5055865;28;20201;-49
2022/04/21 11:09:45;;;;;;;11.73;6.27;;;;;;;15.74;38.67;97737.19;5055524;28;20188;-50
2022/04/21 11:12:18;;;;;;;12.30;7.13;;;;;;;15.87;38.85;97720.63;5016418;28;20209;-51
2022/04/21 11:14:45;;;;;;;7.53;6.07;;;;;;;15.66;38.93;97722.44;5029193;28;20746;-50
2022/04/21 11:17:12;;;;;;;10.27;6.87;;;;;;;15.46;38.96;97733.00;5035206;28;20206;-51
2022/04/21 11:19:44;;;;;;;8.10;6.47;;;;;;;15.86;39.82;97718.97;5017405;28;20237;-51
2022/04/21 11:22:14;;;;;;;10.07;6.10;;;;;;;16.03;39.30;97724.59;5035334;28;20691;-53
2022/04/21 11:25:04;;;;;;;10.90;7.30;;;;;;;15.70;39.74;97715.75;5035269;28;20209;-53
2022/04/21 11:27:37;;;;;;;8.30;6.80;;;;;;;15.82;39.20;97708.03;5009463;28;20648;-52
2022/04/21 11:30:09;;;;;;;9.63;7.10;;;;;;;16.02;40.04;97701.91;5009334;28;20195;-51
2022/04/21 11:32:36;;;;;;;11.70;7.03;;;;;;;16.17;40.26;97714.81;5023545;28;20197;-53
2022/04/21 11:35:06;;;;;;;9.50;6.57;;;;;;;16.02;39.83;97699.28;5005843;28;20215;-52
2022/04/21 11:37:54;;;;;;;9.90;6.70;;;;;;;15.98;39.84;97708.63;5023547;28;20246;-50
2022/04/21 11:40:34;;;;;;;12.17;6.80;;;;;;;16.19;40.13;97692.53;5033500;28;20196;-50
2022/04/21 11:43:05;;;;;;;8.50;6.67;;;;;;;16.40;38.54;97697.69;5035179;28;20191;-50
2022/04/21 11:45:35;;;;;;;9.43;6.90;;;;;;;16.26;38.28;97695.13;5035109;28;20622;-51
2022/04/21 11:48:09;;;;;;;10.13;6.03;;;;;;;16.12;39.62;97697.03;5035085;28;20694;-50
2022/04/21 11:50:36;;;;;;;9.77;7.00;;;;;;;16.43;38.55;97694.63;5034879;28;20184;-51
2022/04/21 11:53:12;;;;;;;10.10;6.70;;;;;;;16.32;38.30;97704.03;5044610;22;20297;-51
2022/04/21 11:55:38;;;;;;;8.37;6.93;;;;;;;16.03;39.37;97703.53;5015162;28;20190;-50
2022/04/21 11:58:07;;;;;;;9.20;6.67;;;;;;;16.33;39.15;97703.00;4995222;28;20284;-52
2022/04/21 12:08:48;;;;;;;11.97;6.43;;;;;;;16.52;39.98;97685.47;5020694;28;20188;-51
2022/04/21 12:11:18;;;;;;;10.53;6.77;;;;;;;16.33;38.52;97682.72;5022162;28;20186;-50
2022/04/21 12:13:48;;;;;;;9.80;7.90;;;;;;;16.56;39.10;97676.13;5025202;28;20683;-50
2022/04/21 12:16:35;;;;;;;9.20;6.40;;;;;;;16.72;39.12;97673.97;5022686;28;20196;-49
2022/04/21 12:19:13;;;;;;;11.50;7.43;;;;;;;16.50;39.78;97667.22;5014457;28;20534;-50
2022/04/21 12:21:40;;;;;;;8.77;6.47;;;;;;;16.47;39.28;97674.75;5022785;28;20196;-50
2022/04/21 12:24:15;;;;;;;10.67;7.13;;;;;;;16.59;38.59;97678.31;5021765;28;20213;-52
2022/04/21 12:26:52;;;;;;;9.87;7.40;;;;;;;16.43;39.00;97669.09;5028659;28;20253;-54
2022/04/21 12:29:22;;;;;;;10.37;7.63;;;;;;;16.36;39.54;97674.41;5014079;28;20587;-51
2022/04/21 12:31:51;;;;;;;10.27;7.60;;;;;;;16.59;40.27;97656.44;5017723;28;20200;-52
2022/04/21 12:34:22;;;;;;;11.87;7.63;;;;;;;16.73;39.77;97659.78;5022699;28;20223;-51
2022/04/21 12:36:51;;;;;;;11.23;7.47;;;;;;;16.58;39.75;97655.63;5020449;28;20197;-51
2022/04/21 12:39:19;;;;;;;9.73;7.27;;;;;;;16.82;40.07;97658.50;5020469;28;20609;-54
2022/04/21 12:41:46;;;;;;;9.93;7.40;;;;;;;16.57;40.29;97658.47;5023199;28;20556;-53